Time;durP1;ratioP1;P1;durP2;ratioP2;P2;SDS_P1;SDS_P2;PMS_P1;PMS_P2;Temp;Humidity;BMP_temperature;BMP_pressure;BME280_temperature;BME280_humidity;BME280_pressure;Samples;Min_cycle;Max_cycle;Signal;HPM_P1;HPM_P2
2022/09/11 00:02:09;;;;;;;25.70;13.33;;;12.90;99.90;12.50;100055;;;;555638;254;24133;-78
2022/09/11 00:04:37;;;;;;;22.60;13.13;;;12.90;99.90;12.50;100050;;;;554991;254;24201;-79
2022/09/11 00:07:01;;;;;;;21.40;14.10;;;12.90;99.90;12.50;100054;;;;545195;259;24230;-78
2022/09/11 00:09:29;;;;;;;22.80;13.83;;;12.90;99.90;12.50;100046;;;;553741;259;24123;-77
2022/09/11 00:11:58;;;;;;;19.37;13.30;;;12.90;99.90;12.50;100046;;;;555433;258;24137;-77
2022/09/11 00:14:28;;;;;;;24.87;13.90;;;12.90;99.90;12.50;100048;;;;554634;255;24160;-78
2022/09/11 00:16:53;;;;;;;24.73;14.07;;;12.90;99.90;12.50;100048;;;;546574;257;24209;-77
2022/09/11 00:19:21;;;;;;;21.60;13.90;;;12.90;99.90;12.50;100051;;;;549729;257;24162;-77
2022/09/11 00:21:49;;;;;;;22.30;13.80;;;12.90;99.90;12.50;100043;;;;562800;251;24164;-77
2022/09/11 00:24:20;;;;;;;26.23;14.77;;;13.00;99.90;12.50;100047;;;;545664;259;24194;-77
2022/09/11 00:26:46;;;;;;;25.17;13.53;;;13.00;99.90;12.50;100047;;;;565861;249;24188;-77
2022/09/11 00:29:17;;;;;;;23.77;15.13;;;13.00;99.90;12.50;100048;;;;545880;259;24190;-78
2022/09/11 00:31:45;;;;;;;30.43;16.90;;;13.00;99.90;12.50;100047;;;;560810;252;24168;-77
2022/09/11 00:34:11;;;;;;;30.50;17.57;;;13.00;99.90;12.50;100046;;;;545421;259;24184;-77
2022/09/11 00:36:43;;;;;;;28.87;16.80;;;13.00;99.90;12.50;100044;;;;556079;254;24136;-77
2022/09/11 00:39:11;;;;;;;29.37;16.30;;;13.00;99.90;12.50;100040;;;;544999;258;24245;-77
2022/09/11 00:41:35;;;;;;;37.07;18.90;;;13.00;99.90;12.60;100043;;;;552554;255;24247;-77
2022/09/11 00:44:17;;;;;;;29.60;17.30;;;13.00;99.90;12.60;100040;;;;545332;259;24248;-77
2022/09/11 00:46:42;;;;;;;30.63;17.50;;;13.00;99.90;12.60;100031;;;;545201;259;24162;-78
2022/09/11 00:49:24;;;;;;;30.37;18.03;;;13.00;99.90;12.50;100031;;;;556219;254;24162;-78
2022/09/11 00:51:52;;;;;;;27.60;16.67;;;13.00;99.90;12.50;100038;;;;546834;259;24170;-77
2022/09/11 00:54:21;;;;;;;28.37;17.37;;;13.00;99.90;12.60;100026;;;;554389;259;24155;-77
2022/09/11 00:56:52;;;;;;;29.70;17.67;;;13.00;99.90;12.60;100033;;;;546197;259;24293;-77
2022/09/11 00:59:16;;;;;;;36.33;18.30;;;13.00;99.90;12.60;100027;;;;564380;254;24166;-77
2022/09/11 01:01:44;;;;;;;27.77;17.60;;;13.00;99.90;12.60;100027;;;;546816;259;24170;-76
2022/09/11 01:04:12;;;;;;;31.60;17.00;;;13.00;99.90;12.60;100031;;;;554083;259;24197;-78
2022/09/11 01:06:45;;;;;;;34.57;16.60;;;13.00;99.90;12.60;100029;;;;546234;259;24222;-77
2022/09/11 01:09:09;;;;;;;28.30;16.00;;;13.00;99.90;12.60;100026;;;;546316;259;24173;-77
2022/09/11 01:12:11;;;;;;;30.13;17.03;;;13.00;99.90;12.60;100036;;;;557853;253;24211;-77
2022/09/11 01:15:00;;;;;;;32.60;16.87;;;13.00;99.90;12.60;100026;;;;549885;257;24152;-77
2022/09/11 01:17:53;;;;;;;28.77;16.47;;;13.00;99.90;12.60;100017;;;;557895;258;24122;-79
2022/09/11 01:20:42;;;;;;;29.00;15.53;;;13.00;99.90;12.60;100015;;;;546743;255;24202;-77
2022/09/11 01:23:29;;;;;;;25.77;14.23;;;13.00;99.90;12.60;100012;;;;568003;252;24134;-78
2022/09/11 01:26:12;;;;;;;24.77;14.30;;;13.00;99.90;12.60;100012;;;;558115;254;24134;-77
2022/09/11 01:28:43;;;;;;;26.30;15.80;;;13.00;99.90;12.60;100020;;;;553853;259;24064;-79
2022/09/11 01:31:13;;;;;;;26.10;16.23;;;13.00;99.90;12.60;100008;;;;554933;259;24187;-79
2022/09/11 01:33:44;;;;;;;22.33;14.77;;;13.10;99.90;12.70;100011;;;;554680;255;24179;-78
2022/09/11 01:36:33;;;;;;;20.93;14.17;;;13.00;99.90;12.70;100009;;;;546692;256;24205;-77
2022/09/11 01:39:07;;;;;;;26.93;15.43;;;13.10;99.90;12.70;100011;;;;552802;256;24237;-78
2022/09/11 01:41:34;;;;;;;22.97;14.47;;;13.10;99.90;12.70;100010;;;;555477;259;24161;-77
2022/09/11 01:44:18;;;;;;;26.43;13.87;;;13.10;99.90;12.60;100012;;;;564342;251;24184;-78
2022/09/11 01:46:46;;;;;;;22.40;12.70;;;13.10;99.90;12.60;100006;;;;554918;259;24256;-78
2022/09/11 01:49:25;;;;;;;23.90;17.00;;;13.10;99.90;12.60;100009;;;;545827;259;24165;-79
2022/09/11 01:51:56;;;;;;;24.50;14.80;;;13.10;99.90;12.60;99998;;;;545933;259;24165;-78
2022/09/11 01:54:24;;;;;;;22.10;13.87;;;13.10;99.90;12.60;99988;;;;545719;259;24175;-78
2022/09/11 01:56:54;;;;;;;26.00;15.40;;;13.00;99.90;12.60;100001;;;;557529;250;24151;-79
2022/09/11 01:59:24;;;;;;;26.60;16.17;;;13.00;99.90;12.60;99984;;;;564304;250;24137;-77
2022/09/11 02:01:50;;;;;;;30.53;16.67;;;13.10;99.90;12.60;99987;;;;553998;259;24173;-77
2022/09/11 02:04:24;;;;;;;21.27;15.90;;;13.10;99.90;12.70;99986;;;;564568;250;24199;-78
2022/09/11 02:06:55;;;;;;;24.07;15.67;;;13.10;99.90;12.70;99992;;;;554319;259;24158;-77
2022/09/11 02:09:23;;;;;;;20.93;14.30;;;13.10;99.90;12.70;99991;;;;545688;259;24191;-77
2022/09/11 02:11:50;;;;;;;21.27;13.83;;;13.00;99.90;12.70;100002;;;;554044;256;24076;-80
2022/09/11 02:14:37;;;;;;;19.47;13.33;;;13.10;99.90;12.70;99999;;;;554211;255;24209;-79
2022/09/11 02:17:26;;;;;;;18.37;12.77;;;13.10;99.90;12.70;99995;;;;545312;259;24164;-79
2022/09/11 02:19:50;;;;;;;22.87;13.70;;;13.10;99.90;12.70;99993;;;;552766;256;24069;-77
2022/09/11 02:22:19;;;;;;;18.33;13.17;;;13.10;99.90;12.70;99986;;;;553677;257;24270;-79
2022/09/11 02:24:46;;;;;;;20.17;13.43;;;13.10;99.90;12.70;99999;;;;553147;259;24196;-80
2022/09/11 02:27:15;;;;;;;18.23;12.30;;;13.10;99.90;12.70;100001;;;;545505;259;24166;-80
2022/09/11 02:29:42;;;;;;;17.33;12.60;;;13.10;99.90;12.70;99995;;;;545394;259;24178;-80
2022/09/11 02:32:10;;;;;;;18.00;13.20;;;13.10;99.90;12.70;99995;;;;566230;250;24125;-79
2022/09/11 02:34:38;;;;;;;17.50;12.87;;;13.10;99.90;12.70;99997;;;;553779;254;24287;-80
2022/09/11 02:37:26;;;;;;;17.93;13.37;;;13.10;99.90;12.70;100003;;;;546737;258;24166;-76
2022/09/11 02:40:21;;;;;;;22.33;13.47;;;13.10;99.90;12.70;100006;;;;554402;255;24119;-78
2022/09/11 02:43:36;;;;;;;20.10;13.47;;;13.10;99.90;12.60;99998;;;;567123;253;24168;-78
2022/09/11 02:46:11;;;;;;;19.30;12.07;;;13.10;99.90;12.60;99992;;;;558123;254;24115;-77
2022/09/11 02:48:57;;;;;;;21.37;12.97;;;13.10;99.90;12.70;99995;;;;565824;254;24196;-76
2022/09/11 02:51:31;;;;;;;17.60;11.60;;;13.10;99.90;12.70;99995;;;;566292;250;24170;-77
2022/09/11 02:54:17;;;;;;;17.70;13.03;;;13.10;99.90;12.70;100002;;;;564884;250;24175;-77
2022/09/11 02:56:55;;;;;;;16.63;12.13;;;13.10;99.90;12.70;99999;;;;565658;254;24138;-78
2022/09/11 02:59:27;;;;;;;18.93;13.07;;;13.10;99.90;12.70;99997;;;;557019;254;24138;-77
2022/09/11 03:01:58;;;;;;;20.03;12.13;;;13.10;99.90;12.70;99997;;;;556471;254;24159;-76
2022/09/11 03:04:23;;;;;;;18.40;13.27;;;13.10;99.90;12.70;99996;;;;564332;250;24183;-77
2022/09/11 03:06:54;;;;;;;20.90;13.30;;;13.10;99.90;12.70;100002;;;;564326;254;24164;-76
2022/09/11 03:09:20;;;;;;;20.70;13.87;;;13.10;99.90;12.70;100000;;;;555736;254;24206;-76
2022/09/11 03:11:48;;;;;;;16.17;13.07;;;13.10;99.90;12.70;99998;;;;556063;254;24148;-76
2022/09/11 03:14:17;;;;;;;19.77;12.60;;;13.10;99.90;12.70;99999;;;;555944;254;24141;-76
2022/09/11 03:16:45;;;;;;;17.10;12.70;;;13.10;99.90;12.70;100008;;;;556083;254;24151;-76
2022/09/11 03:19:13;;;;;;;15.93;11.70;;;13.10;99.90;12.70;99999;;;;556062;254;24162;-76
2022/09/11 03:21:41;;;;;;;15.97;12.50;;;13.10;99.90;12.70;99996;;;;556656;254;24145;-76
2022/09/11 03:24:11;;;;;;;20.90;13.83;;;13.10;99.90;12.60;99996;;;;556059;254;24271;-76
2022/09/11 03:26:41;;;;;;;17.60;11.97;;;13.10;99.90;12.60;99990;;;;557322;254;24133;-76
2022/09/11 03:29:07;;;;;;;20.80;12.13;;;13.10;99.90;12.70;100000;;;;556443;254;24155;-76
2022/09/11 03:31:34;;;;;;;22.30;13.17;;;13.10;99.90;12.60;99999;;;;556882;254;24134;-76
2022/09/11 03:34:01;;;;;;;16.97;12.00;;;13.10;99.90;12.60;100004;;;;557663;254;24152;-76
2022/09/11 03:36:29;;;;;;;17.97;12.83;;;13.10;99.90;12.60;100007;;;;557528;254;24211;-76
2022/09/11 03:38:57;;;;;;;17.93;13.30;;;13.10;99.90;12.60;100005;;;;557473;254;24140;-76
2022/09/11 03:41:25;;;;;;;24.23;12.50;;;13.10;99.90;12.60;100000;;;;557428;254;24147;-77
2022/09/11 03:43:53;;;;;;;20.37;12.37;;;13.10;99.90;12.70;100001;;;;557283;254;27344;-77
2022/09/11 03:46:22;;;;;;;18.83;12.17;;;13.10;99.90;12.70;100014;;;;558212;253;24134;-77
2022/09/11 03:48:52;;;;;;;19.37;12.67;;;13.20;99.90;12.70;100012;;;;558066;254;24197;-76
2022/09/11 03:51:18;;;;;;;20.10;12.87;;;13.10;99.90;12.70;100012;;;;557749;254;24199;-77
2022/09/11 03:53:47;;;;;;;17.47;12.93;;;13.10;99.90;12.60;100021;;;;557117;254;24153;-77
2022/09/11 03:56:13;;;;;;;28.10;13.67;;;13.10;99.90;12.60;100018;;;;556119;254;24185;-77
2022/09/11 03:58:42;;;;;;;20.77;12.17;;;13.10;99.90;12.60;100011;;;;556367;254;24195;-77
2022/09/11 04:01:16;;;;;;;26.43;14.53;;;13.00;99.90;12.50;100015;;;;556532;254;24193;-77
2022/09/11 04:03:40;;;;;;;24.07;13.87;;;13.00;99.90;12.50;100015;;;;559410;254;24212;-77
2022/09/11 04:06:12;;;;;;;19.17;12.17;;;13.00;99.90;12.50;100019;;;;553298;255;24189;-77
2022/09/11 04:08:37;;;;;;;17.60;11.87;;;13.00;99.90;12.50;100014;;;;545093;259;24160;-75
2022/09/11 04:11:06;;;;;;;19.27;12.37;;;13.00;99.90;12.50;100016;;;;544951;259;24185;-77
2022/09/11 04:13:34;;;;;;;20.17;13.20;;;13.00;99.90;12.50;100016;;;;554955;254;24130;-77
2022/09/11 04:16:02;;;;;;;21.50;12.23;;;13.00;99.90;12.60;100004;;;;545504;259;24206;-77
2022/09/11 04:18:30;;;;;;;19.10;12.10;;;13.00;99.90;12.60;100011;;;;544945;259;24198;-77
2022/09/11 04:20:58;;;;;;;25.90;18.07;;;13.00;99.90;12.60;100007;;;;540341;259;35892;-77
2022/09/11 04:23:26;;;;;;;19.00;12.60;;;13.00;99.90;12.60;100018;;;;564826;254;24127;-77
2022/09/11 04:25:54;;;;;;;16.23;12.03;;;13.10;99.90;12.60;100014;;;;564592;254;24196;-77
2022/09/11 04:28:22;;;;;;;18.73;10.87;;;13.10;99.90;12.60;100015;;;;545149;259;24202;-77
2022/09/11 04:30:50;;;;;;;15.00;10.27;;;13.10;99.90;12.60;100006;;;;552838;256;24188;-76
2022/09/11 04:33:20;;;;;;;17.47;10.23;;;13.10;99.90;12.60;100020;;;;554031;259;24138;-77
2022/09/11 04:35:48;;;;;;;22.00;10.27;;;13.10;99.90;12.50;100013;;;;554110;255;24159;-76
2022/09/11 04:38:17;;;;;;;13.83;9.47;;;13.10;99.90;12.50;100019;;;;557178;258;24172;-77
2022/09/11 04:40:44;;;;;;;18.13;10.23;;;13.00;99.90;12.50;100015;;;;556716;254;24182;-77
2022/09/11 04:43:12;;;;;;;15.50;9.57;;;13.10;99.90;12.50;100020;;;;549304;258;24215;-78
2022/09/11 04:45:40;;;;;;;15.60;9.27;;;13.00;99.90;12.50;100015;;;;554182;259;24194;-79
2022/09/11 04:48:08;;;;;;;12.30;8.97;;;13.10;99.90;12.50;100024;;;;556180;254;24126;-76
2022/09/11 04:50:36;;;;;;;13.50;8.40;;;13.10;99.90;12.50;100020;;;;546444;259;24206;-77
2022/09/11 04:53:05;;;;;;;9.97;8.80;;;13.10;99.90;12.50;100013;;;;555552;254;24122;-78
2022/09/11 04:55:32;;;;;;;9.93;8.57;;;13.10;99.90;12.50;100019;;;;546102;259;24169;-76
2022/09/11 04:58:00;;;;;;;12.43;9.07;;;13.10;99.90;12.50;100016;;;;555342;254;24058;-78
2022/09/11 05:00:30;;;;;;;13.80;8.97;;;13.10;99.90;12.60;100030;;;;547117;258;24166;-78
2022/09/11 05:02:55;;;;;;;14.93;8.67;;;13.10;99.90;12.60;100024;;;;546286;259;24165;-79
2022/09/11 05:05:24;;;;;;;11.77;7.73;;;13.10;99.90;12.60;100021;;;;546349;259;24157;-79
2022/09/11 05:07:51;;;;;;;12.07;8.17;;;13.20;99.90;12.70;100031;;;;548916;257;24168;-79
2022/09/11 05:10:19;;;;;;;11.40;7.90;;;13.20;99.90;12.70;100031;;;;553681;259;24170;-80
2022/09/11 05:12:47;;;;;;;13.60;7.50;;;13.20;99.90;12.70;100031;;;;556424;254;24115;-77
2022/09/11 05:15:15;;;;;;;13.73;7.67;;;13.30;99.90;12.70;100031;;;;546780;255;24225;-79
2022/09/11 05:17:43;;;;;;;13.07;7.73;;;13.30;99.90;12.80;100033;;;;554834;255;24203;-77
2022/09/11 05:20:11;;;;;;;10.73;7.50;;;13.30;99.90;12.80;100028;;;;546988;259;24282;-77
2022/09/11 05:22:39;;;;;;;10.60;7.07;;;13.30;99.90;12.90;100028;;;;546233;259;24166;-78
2022/09/11 05:25:09;;;;;;;7.00;6.30;;;13.40;99.90;12.90;100026;;;;555656;254;24114;-78
2022/09/11 05:27:35;;;;;;;9.43;6.93;;;13.50;99.90;13.00;100033;;;;564069;254;24215;-78
2022/09/11 05:30:06;;;;;;;7.67;6.90;;;13.50;99.90;13.10;100031;;;;546518;259;24191;-79
2022/09/11 05:32:30;;;;;;;9.87;7.90;;;13.60;99.90;13.20;100036;;;;561214;244;35704;-77
2022/09/11 05:34:58;;;;;;;10.90;6.93;;;13.70;99.90;13.30;100024;;;;565846;250;24187;-77
2022/09/11 05:37:26;;;;;;;7.33;6.03;;;13.80;99.90;13.30;100032;;;;565767;254;24154;-77
2022/09/11 05:39:54;;;;;;;8.17;6.93;;;13.90;99.90;13.40;100021;;;;546056;259;24165;-78
2022/09/11 05:42:26;;;;;;;7.40;6.10;;;13.90;99.90;13.40;100029;;;;554076;255;24097;-77
2022/09/11 05:44:51;;;;;;;11.20;6.90;;;13.90;99.90;13.50;100028;;;;555162;254;24137;-77
2022/09/11 05:47:18;;;;;;;9.90;6.87;;;14.00;99.90;13.50;100024;;;;545296;259;24210;-78
2022/09/11 05:49:46;;;;;;;11.60;6.90;;;14.10;99.90;13.60;100025;;;;553740;255;24077;-77
2022/09/11 05:52:14;;;;;;;9.17;7.77;;;14.10;99.90;13.60;100021;;;;540938;259;35944;-77
2022/09/11 05:54:42;;;;;;;8.43;5.93;;;14.10;99.90;13.60;100021;;;;545360;255;24202;-77
2022/09/11 05:57:10;;;;;;;10.00;6.00;;;14.10;99.90;13.60;100022;;;;555208;254;24124;-77
2022/09/11 05:59:37;;;;;;;14.50;6.17;;;14.10;99.90;13.60;100028;;;;545537;259;24169;-77
2022/09/11 06:02:05;;;;;;;7.20;5.70;;;14.10;99.90;13.60;100028;;;;553354;256;24135;-76
2022/09/11 06:04:33;;;;;;;9.33;6.23;;;14.10;99.90;13.60;100029;;;;545204;259;24216;-76
2022/09/11 06:07:02;;;;;;;12.23;6.77;;;14.10;99.90;13.60;100029;;;;544909;259;24207;-76
2022/09/11 06:09:31;;;;;;;8.83;6.33;;;14.10;99.90;13.60;100030;;;;555255;254;24121;-77
2022/09/11 06:12:00;;;;;;;9.20;6.23;;;14.20;99.90;13.70;100034;;;;545949;258;24197;-77
2022/09/11 06:14:28;;;;;;;9.63;6.30;;;14.20;99.90;13.70;100036;;;;546010;259;24121;-76
2022/09/11 06:16:55;;;;;;;12.30;5.73;;;14.20;99.90;13.70;100041;;;;553696;255;24233;-76
2022/09/11 06:19:23;;;;;;;9.80;6.27;;;14.20;99.90;13.70;100038;;;;545656;258;24216;-77
2022/09/11 06:21:51;;;;;;;10.73;6.30;;;14.20;99.90;13.70;100039;;;;554915;254;24143;-77
2022/09/11 06:24:19;;;;;;;7.03;6.17;;;14.20;99.90;13.80;100034;;;;545253;259;24221;-77
2022/09/11 06:26:48;;;;;;;11.13;6.50;;;14.30;99.90;14.00;100038;;;;554331;256;24061;-77
2022/09/11 06:29:15;;;;;;;7.00;5.60;;;14.40;99.90;14.10;100045;;;;554092;259;24265;-76
2022/09/11 06:31:43;;;;;;;7.67;5.90;;;14.60;99.90;14.30;100040;;;;545202;259;24199;-76
2022/09/11 06:34:12;;;;;;;10.00;5.83;;;14.90;99.90;14.50;100042;;;;554634;254;24150;-76
2022/09/11 06:36:40;;;;;;;9.70;6.00;;;15.10;99.90;14.70;100047;;;;545070;259;24235;-77
2022/09/11 06:39:08;;;;;;;9.83;5.17;;;15.10;99.90;15.00;100050;;;;553311;255;24055;-76
2022/09/11 06:41:39;;;;;;;7.70;5.83;;;15.40;99.90;15.50;100054;;;;545315;259;24209;-76
2022/09/11 06:44:04;;;;;;;8.57;5.47;;;15.80;99.90;16.30;100057;;;;554812;254;24258;-76
2022/09/11 06:46:32;;;;;;;7.10;4.87;;;16.50;99.90;16.90;100057;;;;561448;255;24157;-75
2022/09/11 06:49:01;;;;;;;7.37;4.70;;;17.20;99.90;17.30;100059;;;;553049;259;24161;-75
2022/09/11 06:51:29;;;;;;;6.03;5.10;;;17.70;99.90;17.90;100054;;;;554620;254;24134;-76
2022/09/11 06:53:57;;;;;;;6.57;4.40;;;18.30;99.90;18.60;100057;;;;545187;259;23160;-76
2022/09/11 06:56:25;;;;;;;9.80;4.53;;;19.30;99.90;18.80;100061;;;;544711;259;24180;-75
2022/09/11 06:58:53;;;;;;;7.03;3.80;;;19.20;99.90;19.00;100061;;;;554112;259;24152;-76
2022/09/11 07:01:21;;;;;;;5.07;4.40;;;19.50;99.90;19.50;100062;;;;549160;258;24244;-76
2022/09/11 07:03:49;;;;;;;6.87;4.97;;;19.80;99.90;20.10;100061;;;;544715;259;24258;-76
2022/09/11 07:06:17;;;;;;;5.87;4.47;;;20.30;99.90;20.70;100064;;;;553063;258;23279;-77
2022/09/11 07:08:57;;;;;;;4.77;3.00;;;21.00;99.90;21.40;100066;;;;554780;254;23200;-76
2022/09/11 07:11:22;;;;;;;6.83;2.63;;;21.70;99.90;22.00;100059;;;;552900;259;24210;-76
2022/09/11 07:13:50;;;;;;;6.23;2.77;;;22.40;99.90;22.80;100053;;;;553089;258;24359;-76
2022/09/11 07:16:18;;;;;;;2.53;2.33;;;23.10;99.90;23.20;100062;;;;552732;259;24223;-75
2022/09/11 07:18:46;;;;;;;5.73;2.40;;;23.80;99.90;23.30;100059;;;;552381;259;24173;-76
2022/09/11 07:21:15;;;;;;;4.37;2.40;;;23.80;99.90;23.00;100053;;;;553863;258;24194;-77
2022/09/11 07:23:45;;;;;;;6.27;2.27;;;23.70;99.90;23.20;100052;;;;553547;258;24189;-77
2022/09/11 07:26:10;;;;;;;3.30;2.10;;;23.70;99.90;23.50;100048;;;;544834;259;24167;-77
2022/09/11 07:28:38;;;;;;;2.87;2.30;;;24.00;99.90;23.90;100049;;;;555144;254;24139;-77
2022/09/11 07:31:12;;;;;;;1.90;1.80;;;24.30;99.90;24.30;100064;;;;555037;254;24163;-77
2022/09/11 07:33:41;;;;;;;4.07;2.43;;;24.70;99.90;24.70;100048;;;;545164;259;24253;-77
2022/09/11 07:36:10;;;;;;;2.47;2.27;;;25.10;99.90;25.20;100052;;;;545201;259;23200;-75
2022/09/11 07:38:41;;;;;;;4.40;2.17;;;25.60;99.90;25.70;100050;;;;545571;259;23178;-78
2022/09/11 07:41:13;;;;;;;6.73;2.10;;;26.10;98.10;26.30;100051;;;;563580;254;23173;-76
2022/09/11 07:43:40;;;;;;;4.87;2.40;;;26.70;94.40;26.70;100048;;;;553533;259;23180;-77
2022/09/11 07:46:06;;;;;;;1.87;1.73;;;27.40;90.10;26.90;100057;;;;552523;259;24264;-77
2022/09/11 07:48:35;;;;;;;7.63;2.53;;;27.30;90.40;26.60;100060;;;;545431;258;23213;-76
2022/09/11 07:51:07;;;;;;;7.70;2.20;;;27.10;89.70;26.40;100055;;;;563067;251;24162;-77
2022/09/11 07:53:37;;;;;;;3.97;2.40;;;27.10;89.60;26.50;100064;;;;553145;259;23219;-76
2022/09/11 07:56:05;;;;;;;5.53;2.30;;;27.10;87.60;26.80;100066;;;;553346;259;23176;-77
2022/09/11 07:58:35;;;;;;;3.43;1.90;;;27.20;87.30;27.00;100063;;;;555432;254;23144;-76
2022/09/11 08:01:02;;;;;;;4.78;2.22;;;27.60;81.70;27.30;100065;;;;540932;259;46808;-77
2022/09/11 08:03:32;;;;;;;3.93;2.30;;;27.80;78.40;26.80;100064;;;;555213;254;23190;-79
2022/09/11 08:05:59;;;;;;;3.27;1.90;;;27.60;77.40;26.50;100066;;;;546294;259;23243;-78
2022/09/11 08:08:30;;;;;;;4.20;2.33;;;27.20;78.80;26.60;100067;;;;545721;259;23178;-76
2022/09/11 08:11:02;;;;;;;2.33;2.13;;;27.20;79.00;26.70;100064;;;;546098;259;24191;-80
2022/09/11 08:13:30;;;;;;;5.47;2.13;;;27.20;79.00;26.20;100068;;;;561250;250;24113;-79
2022/09/11 08:15:58;;;;;;;2.40;1.90;;;26.90;76.30;26.10;100074;;;;545528;255;23207;-80
2022/09/11 08:18:28;;;;;;;5.27;2.13;;;26.80;77.90;25.90;100073;;;;555470;254;23161;-77
2022/09/11 08:20:53;;;;;;;5.43;2.30;;;26.60;79.40;25.70;100069;;;;563593;251;24197;-80
2022/09/11 08:23:23;;;;;;;5.50;2.27;;;26.40;77.30;24.90;100081;;;;565154;254;23153;-80
2022/09/11 08:25:52;;;;;;;4.60;2.10;;;25.80;77.10;24.30;100076;;;;565493;254;23143;-76
2022/09/11 08:28:19;;;;;;;3.27;2.30;;;25.30;79.30;23.90;100067;;;;546144;259;24240;-76
2022/09/11 08:30:47;;;;;;;5.13;1.90;;;24.70;80.20;24.60;100075;;;;554232;254;24073;-77
2022/09/11 08:33:14;;;;;;;2.13;2.00;;;25.00;79.80;25.80;100074;;;;547516;258;23179;-77
2022/09/11 08:35:44;;;;;;;2.33;1.80;;;27.50;73.20;27.50;100079;;;;547116;259;23189;-80
2022/09/11 08:38:11;;;;;;;2.77;1.63;;;27.50;73.20;28.60;100088;;;;556236;254;23231;-76
2022/09/11 08:40:39;;;;;;;3.20;1.67;;;29.00;66.70;27.80;100075;;;;546769;259;23185;-80
2022/09/11 08:43:07;;;;;;;3.27;2.10;;;28.80;63.30;27.40;100083;;;;554613;254;24086;-76
2022/09/11 08:45:35;;;;;;;3.83;1.80;;;28.50;63.50;26.80;100070;;;;546252;259;23179;-78
2022/09/11 08:48:03;;;;;;;1.80;1.70;;;27.80;64.00;26.20;100079;;;;546282;259;24171;-78
2022/09/11 08:50:34;;;;;;;5.03;1.90;;;27.20;65.80;25.90;100073;;;;546906;259;23184;-80
2022/09/11 08:53:02;;;;;;;4.53;1.63;;;26.80;66.10;25.60;100077;;;;553356;255;23183;-78
2022/09/11 08:55:33;;;;;;;2.93;1.70;;;26.40;66.70;26.20;100088;;;;553995;255;24212;-80
2022/09/11 08:58:27;;;;;;;3.30;1.43;;;26.80;67.10;26.40;100081;;;;557036;253;23157;-81
2022/09/11 09:01:13;;;;;;;3.27;1.53;;;27.00;63.70;25.80;100084;;;;549934;259;23180;-81
2022/09/11 09:04:08;;;;;;;1.80;1.70;;;26.70;64.70;25.40;100077;;;;554753;258;24225;-79
2022/09/11 09:07:00;;;;;;;1.70;1.40;;;26.30;64.90;25.10;100090;;;;569341;252;23199;-78
2022/09/11 09:09:54;;;;;;;2.17;1.80;;;25.90;64.80;25.80;100091;;;;549870;259;23213;-79
2022/09/11 09:12:39;;;;;;;1.63;1.53;;;26.30;63.20;26.70;100089;;;;565677;254;24164;-80
2022/09/11 09:15:31;;;;;;;3.33;1.67;;;27.20;61.40;28.10;100093;;;;554315;259;24227;-80
2022/09/11 09:18:02;;;;;;;4.20;1.50;;;28.50;59.50;28.40;100083;;;;555508;252;23180;-81
2022/09/11 09:20:30;;;;;;;1.60;1.50;;;29.30;58.10;27.20;100092;;;;546542;255;23175;-79
2022/09/11 09:23:01;;;;;;;2.47;1.40;;;28.60;58.10;27.00;100104;;;;545031;259;23201;-80
2022/09/11 09:25:28;;;;;;;2.47;1.80;;;28.10;59.50;26.80;100097;;;;565780;254;23201;-79
2022/09/11 09:28:14;;;;;;;1.67;1.43;;;27.80;59.70;27.20;100106;;;;554043;259;24311;-82
2022/09/11 09:30:59;;;;;;;2.83;1.87;;;28.40;58.30;27.60;100098;;;;565567;250;23202;-76
2022/09/11 09:34:00;;;;;;;2.93;1.50;;;28.40;58.20;27.40;100098;;;;553549;259;24227;-76
2022/09/11 09:36:40;;;;;;;4.50;1.67;;;28.30;58.00;26.40;100111;;;;553539;256;23083;-76
2022/09/11 09:39:15;;;;;;;3.00;1.13;;;27.10;58.70;25.80;100109;;;;542170;259;23231;-76
2022/09/11 09:42:01;;;;;;;2.43;1.20;;;27.00;58.60;25.30;100107;;;;563484;254;23285;-76
2022/09/11 09:45:23;;;;;;;1.30;1.20;;;26.60;58.80;24.40;100104;;;;553226;258;23178;-76
2022/09/11 09:47:49;;;;;;;2.90;1.13;;;25.70;61.50;25.20;100107;;;;546975;257;23226;-81
2022/09/11 09:50:19;;;;;;;1.73;1.13;;;25.90;61.30;26.40;100106;;;;553868;258;23207;-81
2022/09/11 09:52:47;;;;;;;13.50;1.80;;;26.90;59.70;27.50;100120;;;;554381;255;23176;-81
2022/09/11 09:55:15;;;;;;;1.50;1.40;;;28.10;58.20;28.20;100109;;;;546103;259;23188;-82
2022/09/11 09:57:44;;;;;;;1.80;1.70;;;29.00;54.90;27.70;100115;;;;554087;255;23174;-77
2022/09/11 10:00:16;;;;;;;4.30;1.43;;;28.90;54.80;27.40;100134;;;;557304;255;23154;-77
2022/09/11 10:02:53;;;;;;;4.17;1.47;;;28.60;55.80;28.40;100126;;;;554030;254;24226;-77
2022/09/11 10:05:42;;;;;;;2.13;1.30;;;29.40;54.40;27.80;100128;;;;555273;254;23217;-75
2022/09/11 10:08:32;;;;;;;1.10;1.07;;;29.20;54.30;27.80;100123;;;;546409;259;23266;-81
2022/09/11 10:11:08;;;;;;;2.17;1.50;;;29.00;54.10;28.30;100122;;;;553441;255;23295;-80
2022/09/11 10:13:41;;;;;;;2.92;1.10;;;29.40;54.00;27.70;100123;;;;564856;250;23188;-81
2022/09/11 10:16:24;;;;;;;1.70;1.50;;;28.90;54.30;26.40;100135;;;;555860;254;23177;-80
2022/09/11 10:18:53;;;;;;;1.77;1.40;;;27.70;55.60;25.10;100128;;;;556569;254;23169;-80
2022/09/11 10:21:32;;;;;;;1.77;1.50;;;26.30;57.50;24.20;100124;;;;556518;254;23189;-80
2022/09/11 10:24:09;;;;;;;1.30;1.20;;;25.30;59.20;23.50;100135;;;;556464;254;24172;-81
2022/09/11 10:26:50;;;;;;;2.17;1.20;;;24.50;60.10;22.50;100138;;;;565285;254;24129;-81
2022/09/11 10:29:15;;;;;;;1.27;1.17;;;23.50;61.80;21.80;100131;;;;565124;254;24264;-81
2022/09/11 10:31:56;;;;;;;1.97;1.40;;;22.20;66.70;21.50;100123;;;;556459;254;24156;-77
2022/09/11 10:34:23;;;;;;;3.00;1.60;;;22.20;66.70;21.00;100116;;;;556892;254;24145;-81
2022/09/11 10:36:55;;;;;;;1.37;1.27;;;21.80;69.10;20.70;100125;;;;557023;254;24140;-80
2022/09/11 10:39:23;;;;;;;2.63;1.20;;;21.40;70.60;20.40;100114;;;;556782;254;23117;-80
2022/09/11 10:41:53;;;;;;;2.17;1.40;;;21.10;72.30;20.10;100123;;;;557044;254;24220;-79
2022/09/11 10:44:21;;;;;;;2.10;1.23;;;20.80;72.30;19.70;100143;;;;565097;251;24149;-79
2022/09/11 10:47:23;;;;;;;4.77;1.60;;;20.40;74.10;19.30;100129;;;;556693;254;24259;-79
2022/09/11 10:49:51;;;;;;;3.13;1.30;;;19.70;76.60;19.00;100125;;;;556569;254;24191;-81
2022/09/11 10:52:21;;;;;;;2.40;1.17;;;19.30;78.00;18.70;100129;;;;557047;251;24254;-77
2022/09/11 10:55:06;;;;;;;1.67;1.30;;;19.30;78.00;18.40;100139;;;;556870;252;23189;-78
2022/09/11 10:57:43;;;;;;;3.77;1.43;;;19.00;78.00;18.10;100131;;;;558090;254;24139;-80
2022/09/11 11:00:22;;;;;;;2.10;1.30;;;18.70;79.40;17.90;100136;;;;565484;254;24141;-81
2022/09/11 11:03:22;;;;;;;3.80;1.20;;;18.50;80.40;17.90;100140;;;;565003;250;24167;-76
2022/09/11 11:06:24;;;;;;;2.13;1.20;;;18.30;81.70;17.80;100135;;;;564497;254;24205;-75
2022/09/11 11:09:05;;;;;;;1.50;1.40;;;18.20;83.00;17.70;100132;;;;556427;254;24141;-76
2022/09/11 11:11:41;;;;;;;1.37;1.27;;;18.20;83.00;17.60;100134;;;;564765;254;24139;-77
2022/09/11 11:14:23;;;;;;;1.10;1.00;;;18.10;83.30;17.50;100141;;;;563814;254;24167;-77
2022/09/11 11:17:27;;;;;;;4.23;1.10;;;18.00;82.50;17.30;100140;;;;564356;254;24164;-75
2022/09/11 11:20:06;;;;;;;2.80;1.60;;;17.80;82.70;17.10;100131;;;;564546;254;24169;-77
2022/09/11 11:23:25;;;;;;;4.23;1.20;;;17.60;84.70;17.00;100141;;;;556291;254;24207;-76
2022/09/11 11:26:26;;;;;;;1.50;1.20;;;17.40;85.30;16.80;100124;;;;556870;254;24164;-75